sensor_id;sensor_type;location;lat;lon;timestamp;temperature;humidity
20866;DHT22;10593;48.398;10.698;2023-02-08T00:01:52;1.40;44.10
20866;DHT22;10593;48.398;10.698;2023-02-08T00:04:18;1.40;43.60
20866;DHT22;10593;48.398;10.698;2023-02-08T00:06:44;1.40;43.60
20866;DHT22;10593;48.398;10.698;2023-02-08T00:09:09;1.40;43.50
20866;DHT22;10593;48.398;10.698;2023-02-08T00:11:35;1.40;43.40
20866;DHT22;10593;48.398;10.698;2023-02-08T00:14:01;1.40;43.50
20866;DHT22;10593;48.398;10.698;2023-02-08T00:16:27;1.40;43.50
20866;DHT22;10593;48.398;10.698;2023-02-08T00:18:52;1.40;43.60
20866;DHT22;10593;48.398;10.698;2023-02-08T00:21:18;1.40;43.70
20866;DHT22;10593;48.398;10.698;2023-02-08T00:23:44;1.30;43.60
20866;DHT22;10593;48.398;10.698;2023-02-08T00:26:11;1.40;43.70
20866;DHT22;10593;48.398;10.698;2023-02-08T00:28:36;1.40;43.70
20866;DHT22;10593;48.398;10.698;2023-02-08T00:31:02;1.30;43.70
20866;DHT22;10593;48.398;10.698;2023-02-08T00:33:28;1.30;43.60
20866;DHT22;10593;48.398;10.698;2023-02-08T00:35:58;1.30;43.60
20866;DHT22;10593;48.398;10.698;2023-02-08T00:38:25;1.30;43.60
20866;DHT22;10593;48.398;10.698;2023-02-08T00:40:51;1.30;43.60
20866;DHT22;10593;48.398;10.698;2023-02-08T00:43:17;1.30;43.60
20866;DHT22;10593;48.398;10.698;2023-02-08T00:45:42;1.30;43.60
20866;DHT22;10593;48.398;10.698;2023-02-08T00:48:08;1.30;43.60
20866;DHT22;10593;48.398;10.698;2023-02-08T00:50:34;1.30;43.60
20866;DHT22;10593;48.398;10.698;2023-02-08T00:52:59;1.30;43.60
20866;DHT22;10593;48.398;10.698;2023-02-08T00:55:25;1.30;43.50
20866;DHT22;10593;48.398;10.698;2023-02-08T00:57:51;1.30;43.50
20866;DHT22;10593;48.398;10.698;2023-02-08T01:00:17;1.30;43.60
20866;DHT22;10593;48.398;10.698;2023-02-08T01:02:42;1.20;43.60
20866;DHT22;10593;48.398;10.698;2023-02-08T01:05:08;1.30;43.70
20866;DHT22;10593;48.398;10.698;2023-02-08T01:07:37;1.20;43.60
20866;DHT22;10593;48.398;10.698;2023-02-08T01:10:04;1.20;43.50
20866;DHT22;10593;48.398;10.698;2023-02-08T01:12:31;1.20;43.60
20866;DHT22;10593;48.398;10.698;2023-02-08T01:14:57;1.20;43.60
20866;DHT22;10593;48.398;10.698;2023-02-08T01:17:23;1.20;44.20
20866;DHT22;10593;48.398;10.698;2023-02-08T01:19:48;1.20;43.60
20866;DHT22;10593;48.398;10.698;2023-02-08T01:22:14;1.20;43.60
20866;DHT22;10593;48.398;10.698;2023-02-08T01:24:39;1.20;43.60
20866;DHT22;10593;48.398;10.698;2023-02-08T01:27:05;1.20;43.50
20866;DHT22;10593;48.398;10.698;2023-02-08T01:29:31;1.20;43.50
20866;DHT22;10593;48.398;10.698;2023-02-08T01:31:56;1.20;43.50
20866;DHT22;10593;48.398;10.698;2023-02-08T01:34:22;1.10;43.50
20866;DHT22;10593;48.398;10.698;2023-02-08T01:36:47;1.10;43.50
20866;DHT22;10593;48.398;10.698;2023-02-08T01:39:13;1.10;43.50
20866;DHT22;10593;48.398;10.698;2023-02-08T01:41:41;1.10;43.50
20866;DHT22;10593;48.398;10.698;2023-02-08T01:46:45;1.10;43.50
20866;DHT22;10593;48.398;10.698;2023-02-08T01:49:30;1.10;43.40
20866;DHT22;10593;48.398;10.698;2023-02-08T01:52:06;1.10;43.40
20866;DHT22;10593;48.398;10.698;2023-02-08T01:54:49;1.10;43.40
20866;DHT22;10593;48.398;10.698;2023-02-08T01:57:21;1.10;43.40
20866;DHT22;10593;48.398;10.698;2023-02-08T01:59:51;1.10;43.50
20866;DHT22;10593;48.398;10.698;2023-02-08T02:02:22;1.00;43.40
20866;DHT22;10593;48.398;10.698;2023-02-08T02:04:51;1.00;43.40
20866;DHT22;10593;48.398;10.698;2023-02-08T02:07:18;1.00;43.40
20866;DHT22;10593;48.398;10.698;2023-02-08T02:12:42;1.00;43.40
20866;DHT22;10593;48.398;10.698;2023-02-08T02:15:10;1.00;43.50
20866;DHT22;10593;48.398;10.698;2023-02-08T02:17:37;1.00;43.40
20866;DHT22;10593;48.398;10.698;2023-02-08T02:20:08;0.90;43.30
20866;DHT22;10593;48.398;10.698;2023-02-08T02:23:16;0.90;43.30
20866;DHT22;10593;48.398;10.698;2023-02-08T02:26:19;0.90;43.30
20866;DHT22;10593;48.398;10.698;2023-02-08T02:29:55;0.90;43.30
20866;DHT22;10593;48.398;10.698;2023-02-08T02:39:22;0.80;43.30
20866;DHT22;10593;48.398;10.698;2023-02-08T02:47:44;0.70;43.40
20866;DHT22;10593;48.398;10.698;2023-02-08T02:50:31;0.70;43.50
20866;DHT22;10593;48.398;10.698;2023-02-08T02:53:25;0.70;43.50
20866;DHT22;10593;48.398;10.698;2023-02-08T02:56:05;0.70;43.50
20866;DHT22;10593;48.398;10.698;2023-02-08T02:58:37;0.70;43.60
20866;DHT22;10593;48.398;10.698;2023-02-08T03:01:05;0.70;43.60
20866;DHT22;10593;48.398;10.698;2023-02-08T03:03:32;0.70;43.60
20866;DHT22;10593;48.398;10.698;2023-02-08T03:06:10;0.70;43.60
20866;DHT22;10593;48.398;10.698;2023-02-08T03:09:07;0.70;43.60
20866;DHT22;10593;48.398;10.698;2023-02-08T03:15:17;0.60;43.60
20866;DHT22;10593;48.398;10.698;2023-02-08T03:18:04;0.60;43.60
20866;DHT22;10593;48.398;10.698;2023-02-08T03:20:45;0.60;43.60
20866;DHT22;10593;48.398;10.698;2023-02-08T03:23:29;0.60;43.60
20866;DHT22;10593;48.398;10.698;2023-02-08T03:26:22;0.60;43.60
20866;DHT22;10593;48.398;10.698;2023-02-08T03:29:01;0.60;43.60
20866;DHT22;10593;48.398;10.698;2023-02-08T03:31:41;0.60;44.30
20866;DHT22;10593;48.398;10.698;2023-02-08T03:37:19;0.60;43.60
20866;DHT22;10593;48.398;10.698;2023-02-08T03:39:50;0.50;43.50
20866;DHT22;10593;48.398;10.698;2023-02-08T03:42:23;0.50;43.60
20866;DHT22;10593;48.398;10.698;2023-02-08T03:44:57;0.50;43.70
20866;DHT22;10593;48.398;10.698;2023-02-08T03:47:28;0.50;43.70
20866;DHT22;10593;48.398;10.698;2023-02-08T03:50:00;0.50;43.70
20866;DHT22;10593;48.398;10.698;2023-02-08T03:52:31;0.50;43.70
20866;DHT22;10593;48.398;10.698;2023-02-08T03:55:15;0.50;43.70
20866;DHT22;10593;48.398;10.698;2023-02-08T03:57:51;0.50;43.70
20866;DHT22;10593;48.398;10.698;2023-02-08T04:00:21;0.50;43.70
20866;DHT22;10593;48.398;10.698;2023-02-08T04:02:56;0.50;44.20
20866;DHT22;10593;48.398;10.698;2023-02-08T04:05:27;0.50;43.60
20866;DHT22;10593;48.398;10.698;2023-02-08T04:07:53;0.50;43.70
20866;DHT22;10593;48.398;10.698;2023-02-08T04:10:19;0.50;43.60
20866;DHT22;10593;48.398;10.698;2023-02-08T04:12:47;0.40;43.50
20866;DHT22;10593;48.398;10.698;2023-02-08T04:15:13;0.40;43.50
20866;DHT22;10593;48.398;10.698;2023-02-08T04:17:39;0.40;43.50
20866;DHT22;10593;48.398;10.698;2023-02-08T04:20:06;0.40;43.50
20866;DHT22;10593;48.398;10.698;2023-02-08T04:22:32;0.40;43.50
20866;DHT22;10593;48.398;10.698;2023-02-08T04:24:58;0.40;43.50
20866;DHT22;10593;48.398;10.698;2023-02-08T04:27:24;0.40;43.50
20866;DHT22;10593;48.398;10.698;2023-02-08T04:29:50;0.40;43.50
20866;DHT22;10593;48.398;10.698;2023-02-08T04:32:15;0.30;43.40
20866;DHT22;10593;48.398;10.698;2023-02-08T04:34:41;0.30;43.40
20866;DHT22;10593;48.398;10.698;2023-02-08T04:37:07;0.30;43.40
20866;DHT22;10593;48.398;10.698;2023-02-08T04:39:34;0.40;43.50
20866;DHT22;10593;48.398;10.698;2023-02-08T04:41:59;0.30;43.40
20866;DHT22;10593;48.398;10.698;2023-02-08T04:44:25;0.30;43.40
20866;DHT22;10593;48.398;10.698;2023-02-08T04:46:51;0.30;43.40
20866;DHT22;10593;48.398;10.698;2023-02-08T04:49:17;0.30;43.40
20866;DHT22;10593;48.398;10.698;2023-02-08T04:51:43;0.30;43.40
20866;DHT22;10593;48.398;10.698;2023-02-08T04:54:09;0.30;43.40
20866;DHT22;10593;48.398;10.698;2023-02-08T04:56:35;0.30;43.40
20866;DHT22;10593;48.398;10.698;2023-02-08T04:59:01;0.20;43.30
20866;DHT22;10593;48.398;10.698;2023-02-08T05:01:27;0.30;43.50
20866;DHT22;10593;48.398;10.698;2023-02-08T05:03:53;0.20;43.30
20866;DHT22;10593;48.398;10.698;2023-02-08T05:06:19;0.20;43.40
20866;DHT22;10593;48.398;10.698;2023-02-08T05:08:45;0.20;43.50
20866;DHT22;10593;48.398;10.698;2023-02-08T05:11:10;0.20;43.50
20866;DHT22;10593;48.398;10.698;2023-02-08T05:13:36;0.20;43.50
20866;DHT22;10593;48.398;10.698;2023-02-08T05:16:02;0.20;43.50
20866;DHT22;10593;48.398;10.698;2023-02-08T05:18:27;0.20;43.60
20866;DHT22;10593;48.398;10.698;2023-02-08T05:20:59;0.20;43.60
20866;DHT22;10593;48.398;10.698;2023-02-08T05:23:26;0.20;43.60
20866;DHT22;10593;48.398;10.698;2023-02-08T05:25:52;0.20;43.70
20866;DHT22;10593;48.398;10.698;2023-02-08T05:28:18;0.20;43.70
20866;DHT22;10593;48.398;10.698;2023-02-08T05:30:45;0.20;44.00
20866;DHT22;10593;48.398;10.698;2023-02-08T05:33:11;0.20;43.70
20866;DHT22;10593;48.398;10.698;2023-02-08T05:35:37;0.20;43.70
20866;DHT22;10593;48.398;10.698;2023-02-08T05:38:03;0.20;43.70
20866;DHT22;10593;48.398;10.698;2023-02-08T05:40:30;0.20;43.70
20866;DHT22;10593;48.398;10.698;2023-02-08T05:42:56;0.20;43.70
20866;DHT22;10593;48.398;10.698;2023-02-08T05:45:21;0.10;43.70
20866;DHT22;10593;48.398;10.698;2023-02-08T05:47:47;0.10;43.70
20866;DHT22;10593;48.398;10.698;2023-02-08T05:50:13;0.10;43.70
20866;DHT22;10593;48.398;10.698;2023-02-08T05:52:39;0.10;43.70
20866;DHT22;10593;48.398;10.698;2023-02-08T05:55:05;0.10;43.80
20866;DHT22;10593;48.398;10.698;2023-02-08T05:57:32;0.20;43.80
20866;DHT22;10593;48.398;10.698;2023-02-08T05:59:58;0.10;43.80
20866;DHT22;10593;48.398;10.698;2023-02-08T06:02:23;0.10;43.80
20866;DHT22;10593;48.398;10.698;2023-02-08T06:04:49;0.10;43.80
20866;DHT22;10593;48.398;10.698;2023-02-08T06:07:15;0.10;43.80
20866;DHT22;10593;48.398;10.698;2023-02-08T06:09:40;0.10;43.80
20866;DHT22;10593;48.398;10.698;2023-02-08T06:12:06;0.10;43.80
20866;DHT22;10593;48.398;10.698;2023-02-08T06:14:32;0.10;43.80
20866;DHT22;10593;48.398;10.698;2023-02-08T06:16:58;0.00;43.80
20866;DHT22;10593;48.398;10.698;2023-02-08T06:19:23;0.00;43.80
20866;DHT22;10593;48.398;10.698;2023-02-08T06:21:49;0.00;43.80
20866;DHT22;10593;48.398;10.698;2023-02-08T06:24:14;0.00;43.80
20866;DHT22;10593;48.398;10.698;2023-02-08T06:26:41;0.00;43.80
20866;DHT22;10593;48.398;10.698;2023-02-08T06:29:08;0.00;43.80
20866;DHT22;10593;48.398;10.698;2023-02-08T06:31:35;0.00;43.90
20866;DHT22;10593;48.398;10.698;2023-02-08T06:34:01;0.00;43.80
20866;DHT22;10593;48.398;10.698;2023-02-08T06:36:27;0.00;43.90
20866;DHT22;10593;48.398;10.698;2023-02-08T06:38:52;0.00;43.90
20866;DHT22;10593;48.398;10.698;2023-02-08T06:41:18;0.00;43.90
20866;DHT22;10593;48.398;10.698;2023-02-08T06:43:44;0.00;43.90
20866;DHT22;10593;48.398;10.698;2023-02-08T06:46:09;0.00;43.90
20866;DHT22;10593;48.398;10.698;2023-02-08T06:48:35;-0.10;43.90
20866;DHT22;10593;48.398;10.698;2023-02-08T06:51:01;-0.10;43.90
20866;DHT22;10593;48.398;10.698;2023-02-08T06:53:27;-0.10;43.90
20866;DHT22;10593;48.398;10.698;2023-02-08T06:55:53;-0.10;43.90
20866;DHT22;10593;48.398;10.698;2023-02-08T06:58:19;-0.10;44.00
20866;DHT22;10593;48.398;10.698;2023-02-08T07:00:45;-0.10;44.00
20866;DHT22;10593;48.398;10.698;2023-02-08T07:03:12;-0.10;44.10
20866;DHT22;10593;48.398;10.698;2023-02-08T07:05:38;-0.10;44.20
20866;DHT22;10593;48.398;10.698;2023-02-08T07:08:05;-0.10;44.20
20866;DHT22;10593;48.398;10.698;2023-02-08T07:10:31;-0.10;44.20
20866;DHT22;10593;48.398;10.698;2023-02-08T07:12:58;-0.10;44.20
20866;DHT22;10593;48.398;10.698;2023-02-08T07:15:25;-0.10;44.20
20866;DHT22;10593;48.398;10.698;2023-02-08T07:17:51;-0.10;44.80
20866;DHT22;10593;48.398;10.698;2023-02-08T07:20:17;-0.10;44.20
20866;DHT22;10593;48.398;10.698;2023-02-08T07:22:42;-0.10;44.30
20866;DHT22;10593;48.398;10.698;2023-02-08T07:25:08;-0.10;44.40
20866;DHT22;10593;48.398;10.698;2023-02-08T07:27:34;-0.10;44.50
20866;DHT22;10593;48.398;10.698;2023-02-08T07:30:00;-0.10;44.60
20866;DHT22;10593;48.398;10.698;2023-02-08T07:32:26;0.00;44.70
20866;DHT22;10593;48.398;10.698;2023-02-08T07:34:52;0.00;45.30
20866;DHT22;10593;48.398;10.698;2023-02-08T07:37:19;0.00;44.80
20866;DHT22;10593;48.398;10.698;2023-02-08T07:39:44;0.00;44.80
20866;DHT22;10593;48.398;10.698;2023-02-08T07:42:10;0.00;44.80
20866;DHT22;10593;48.398;10.698;2023-02-08T07:44:37;0.00;44.80
20866;DHT22;10593;48.398;10.698;2023-02-08T07:47:04;0.00;44.90
20866;DHT22;10593;48.398;10.698;2023-02-08T07:49:31;0.10;45.00
20866;DHT22;10593;48.398;10.698;2023-02-08T07:51:58;0.10;45.00
20866;DHT22;10593;48.398;10.698;2023-02-08T07:54:25;0.10;45.00
20866;DHT22;10593;48.398;10.698;2023-02-08T07:56:50;0.10;45.30
20866;DHT22;10593;48.398;10.698;2023-02-08T07:59:16;0.10;45.00
20866;DHT22;10593;48.398;10.698;2023-02-08T08:01:42;0.10;45.00
20866;DHT22;10593;48.398;10.698;2023-02-08T08:04:07;0.20;45.10
20866;DHT22;10593;48.398;10.698;2023-02-08T08:06:33;0.20;45.10
20866;DHT22;10593;48.398;10.698;2023-02-08T08:08:59;0.20;45.10
20866;DHT22;10593;48.398;10.698;2023-02-08T08:11:25;0.20;45.20
20866;DHT22;10593;48.398;10.698;2023-02-08T08:13:50;0.20;45.10
20866;DHT22;10593;48.398;10.698;2023-02-08T08:16:17;0.20;45.10
20866;DHT22;10593;48.398;10.698;2023-02-08T08:18:44;0.30;45.30
20866;DHT22;10593;48.398;10.698;2023-02-08T08:21:10;0.30;45.30
20866;DHT22;10593;48.398;10.698;2023-02-08T08:23:36;0.30;45.30
20866;DHT22;10593;48.398;10.698;2023-02-08T08:26:11;0.30;45.30
20866;DHT22;10593;48.398;10.698;2023-02-08T08:28:40;0.30;45.20
20866;DHT22;10593;48.398;10.698;2023-02-08T08:31:10;0.40;45.30
20866;DHT22;10593;48.398;10.698;2023-02-08T08:33:38;0.40;45.30
20866;DHT22;10593;48.398;10.698;2023-02-08T08:36:03;0.40;45.30
20866;DHT22;10593;48.398;10.698;2023-02-08T08:38:29;0.40;45.30
20866;DHT22;10593;48.398;10.698;2023-02-08T08:40:55;0.40;45.30
20866;DHT22;10593;48.398;10.698;2023-02-08T08:43:21;0.40;45.40
20866;DHT22;10593;48.398;10.698;2023-02-08T08:45:46;0.50;45.50
20866;DHT22;10593;48.398;10.698;2023-02-08T08:48:12;0.50;45.50
20866;DHT22;10593;48.398;10.698;2023-02-08T08:50:38;0.50;45.40
20866;DHT22;10593;48.398;10.698;2023-02-08T08:53:03;0.50;45.40
20866;DHT22;10593;48.398;10.698;2023-02-08T08:55:29;0.50;45.40
20866;DHT22;10593;48.398;10.698;2023-02-08T08:57:55;0.50;45.50
20866;DHT22;10593;48.398;10.698;2023-02-08T09:00:21;0.50;45.60
20866;DHT22;10593;48.398;10.698;2023-02-08T09:02:47;0.50;45.70
20866;DHT22;10593;48.398;10.698;2023-02-08T09:05:13;0.50;45.60
20866;DHT22;10593;48.398;10.698;2023-02-08T09:07:38;0.60;45.70
20866;DHT22;10593;48.398;10.698;2023-02-08T09:10:04;0.50;45.70
20866;DHT22;10593;48.398;10.698;2023-02-08T09:12:30;0.60;45.80
20866;DHT22;10593;48.398;10.698;2023-02-08T09:14:56;0.60;45.90
20866;DHT22;10593;48.398;10.698;2023-02-08T09:17:22;0.60;45.90
20866;DHT22;10593;48.398;10.698;2023-02-08T09:19:47;0.60;45.90
20866;DHT22;10593;48.398;10.698;2023-02-08T09:22:13;0.60;45.90
20866;DHT22;10593;48.398;10.698;2023-02-08T09:24:38;0.60;45.90
20866;DHT22;10593;48.398;10.698;2023-02-08T09:27:04;0.60;45.90
20866;DHT22;10593;48.398;10.698;2023-02-08T09:29:30;0.70;46.00
20866;DHT22;10593;48.398;10.698;2023-02-08T09:31:58;0.70;46.00
20866;DHT22;10593;48.398;10.698;2023-02-08T09:34:23;0.70;46.00
20866;DHT22;10593;48.398;10.698;2023-02-08T09:36:49;0.70;46.10
20866;DHT22;10593;48.398;10.698;2023-02-08T09:39:21;0.70;46.20
20866;DHT22;10593;48.398;10.698;2023-02-08T09:41:58;0.70;46.10
20866;DHT22;10593;48.398;10.698;2023-02-08T09:50:35;0.80;46.50
20866;DHT22;10593;48.398;10.698;2023-02-08T09:53:10;0.80;46.50
20866;DHT22;10593;48.398;10.698;2023-02-08T09:55:46;0.80;46.50
20866;DHT22;10593;48.398;10.698;2023-02-08T10:00:46;0.80;46.60
20866;DHT22;10593;48.398;10.698;2023-02-08T10:03:36;0.90;46.70
20866;DHT22;10593;48.398;10.698;2023-02-08T10:06:05;0.90;46.80
20866;DHT22;10593;48.398;10.698;2023-02-08T10:08:33;0.90;46.80
20866;DHT22;10593;48.398;10.698;2023-02-08T10:11:05;0.90;46.90
20866;DHT22;10593;48.398;10.698;2023-02-08T10:16:52;1.00;47.30
20866;DHT22;10593;48.398;10.698;2023-02-08T10:19:29;1.00;47.10
20866;DHT22;10593;48.398;10.698;2023-02-08T10:25:51;1.10;47.10
20866;DHT22;10593;48.398;10.698;2023-02-08T10:34:27;1.10;47.20
20866;DHT22;10593;48.398;10.698;2023-02-08T10:37:13;1.10;47.30
20866;DHT22;10593;48.398;10.698;2023-02-08T10:39:42;1.20;47.40
20866;DHT22;10593;48.398;10.698;2023-02-08T10:42:16;1.10;47.30
20866;DHT22;10593;48.398;10.698;2023-02-08T10:47:57;1.20;47.20
20866;DHT22;10593;48.398;10.698;2023-02-08T10:50:38;1.20;47.10
20866;DHT22;10593;48.398;10.698;2023-02-08T10:53:13;1.30;47.20
20866;DHT22;10593;48.398;10.698;2023-02-08T10:55:42;1.30;47.20
20866;DHT22;10593;48.398;10.698;2023-02-08T10:58:19;1.30;47.00
20866;DHT22;10593;48.398;10.698;2023-02-08T11:00:47;1.40;47.10
20866;DHT22;10593;48.398;10.698;2023-02-08T11:05:49;1.40;46.90
20866;DHT22;10593;48.398;10.698;2023-02-08T11:10:57;1.50;46.80
20866;DHT22;10593;48.398;10.698;2023-02-08T11:13:38;1.50;46.90
20866;DHT22;10593;48.398;10.698;2023-02-08T11:16:06;1.50;46.80
20866;DHT22;10593;48.398;10.698;2023-02-08T11:18:40;1.50;46.80
20866;DHT22;10593;48.398;10.698;2023-02-08T11:23:55;1.60;46.60
20866;DHT22;10593;48.398;10.698;2023-02-08T11:26:36;1.60;46.60
20866;DHT22;10593;48.398;10.698;2023-02-08T11:32:18;1.70;46.70
20866;DHT22;10593;48.398;10.698;2023-02-08T11:34:45;1.70;46.60
20866;DHT22;10593;48.398;10.698;2023-02-08T11:37:17;1.70;46.70
20866;DHT22;10593;48.398;10.698;2023-02-08T11:39:58;1.70;46.70
20866;DHT22;10593;48.398;10.698;2023-02-08T11:42:33;1.80;47.00
20866;DHT22;10593;48.398;10.698;2023-02-08T11:45:00;1.80;47.20
20866;DHT22;10593;48.398;10.698;2023-02-08T11:47:30;1.80;47.10
20866;DHT22;10593;48.398;10.698;2023-02-08T11:50:00;1.80;47.00
20866;DHT22;10593;48.398;10.698;2023-02-08T11:52:34;1.90;47.20
20866;DHT22;10593;48.398;10.698;2023-02-08T12:00:24;2.00;47.00
20866;DHT22;10593;48.398;10.698;2023-02-08T12:03:21;2.00;47.10
20866;DHT22;10593;48.398;10.698;2023-02-08T12:18:41;2.10;46.70
20866;DHT22;10593;48.398;10.698;2023-02-08T12:21:24;2.20;46.80
20866;DHT22;10593;48.398;10.698;2023-02-08T12:27:38;2.20;46.70
20866;DHT22;10593;48.398;10.698;2023-02-08T12:30:37;2.20;46.60
20866;DHT22;10593;48.398;10.698;2023-02-08T12:33:43;2.20;46.50
20866;DHT22;10593;48.398;10.698;2023-02-08T12:36:38;2.30;46.40
20866;DHT22;10593;48.398;10.698;2023-02-08T12:40:07;2.30;46.40
20866;DHT22;10593;48.398;10.698;2023-02-08T12:43:12;2.30;46.20
20866;DHT22;10593;48.398;10.698;2023-02-08T12:46:18;2.30;46.30
20866;DHT22;10593;48.398;10.698;2023-02-08T12:55:27;2.40;46.20
20866;DHT22;10593;48.398;10.698;2023-02-08T12:58:43;2.40;46.40
20866;DHT22;10593;48.398;10.698;2023-02-08T13:00:53;2.40;46.50
20866;DHT22;10593;48.398;10.698;2023-02-08T13:06:05;2.40;46.30
20866;DHT22;10593;48.398;10.698;2023-02-08T13:11:52;2.50;46.20
20866;DHT22;10593;48.398;10.698;2023-02-08T13:14:36;2.50;46.20
20866;DHT22;10593;48.398;10.698;2023-02-08T13:18:03;2.50;46.20
20866;DHT22;10593;48.398;10.698;2023-02-08T13:20:40;2.60;46.10
20866;DHT22;10593;48.398;10.698;2023-02-08T13:23:15;2.60;46.00
20866;DHT22;10593;48.398;10.698;2023-02-08T13:25:59;2.60;46.00
20866;DHT22;10593;48.398;10.698;2023-02-08T13:28:27;2.60;46.00
20866;DHT22;10593;48.398;10.698;2023-02-08T13:30:59;2.60;45.90
20866;DHT22;10593;48.398;10.698;2023-02-08T13:36:34;2.60;45.70
20866;DHT22;10593;48.398;10.698;2023-02-08T13:39:04;2.70;45.60
20866;DHT22;10593;48.398;10.698;2023-02-08T13:41:33;2.70;45.40
20866;DHT22;10593;48.398;10.698;2023-02-08T13:44:17;2.70;45.30
20866;DHT22;10593;48.398;10.698;2023-02-08T13:46:50;2.70;45.70
20866;DHT22;10593;48.398;10.698;2023-02-08T13:58:02;2.80;45.30
20866;DHT22;10593;48.398;10.698;2023-02-08T14:03:22;2.80;45.50
20866;DHT22;10593;48.398;10.698;2023-02-08T14:06:16;2.80;45.60
20866;DHT22;10593;48.398;10.698;2023-02-08T14:09:08;2.80;45.30
20866;DHT22;10593;48.398;10.698;2023-02-08T14:17:46;2.80;45.00
20866;DHT22;10593;48.398;10.698;2023-02-08T14:20:40;2.90;45.20
20866;DHT22;10593;48.398;10.698;2023-02-08T14:23:22;2.90;45.00
20866;DHT22;10593;48.398;10.698;2023-02-08T14:25:52;2.90;45.00
20866;DHT22;10593;48.398;10.698;2023-02-08T14:28:31;2.90;45.10
20866;DHT22;10593;48.398;10.698;2023-02-08T14:31:03;2.90;44.90
20866;DHT22;10593;48.398;10.698;2023-02-08T14:33:34;2.90;45.00
20866;DHT22;10593;48.398;10.698;2023-02-08T14:36:06;2.90;45.00
20866;DHT22;10593;48.398;10.698;2023-02-08T14:41:55;2.90;44.80
20866;DHT22;10593;48.398;10.698;2023-02-08T14:50:03;3.00;44.90
20866;DHT22;10593;48.398;10.698;2023-02-08T14:52:33;2.90;44.80
20866;DHT22;10593;48.398;10.698;2023-02-08T14:55:22;2.90;44.80
20866;DHT22;10593;48.398;10.698;2023-02-08T14:57:53;2.90;44.70
20866;DHT22;10593;48.398;10.698;2023-02-08T15:00:24;2.90;44.80
20866;DHT22;10593;48.398;10.698;2023-02-08T15:02:53;2.90;44.80
20866;DHT22;10593;48.398;10.698;2023-02-08T15:05:26;3.00;44.90
20866;DHT22;10593;48.398;10.698;2023-02-08T15:07:56;3.00;44.80
20866;DHT22;10593;48.398;10.698;2023-02-08T15:10:24;3.00;44.90
20866;DHT22;10593;48.398;10.698;2023-02-08T15:12:56;3.00;45.00
20866;DHT22;10593;48.398;10.698;2023-02-08T15:15:34;3.00;45.00
20866;DHT22;10593;48.398;10.698;2023-02-08T15:18:04;3.00;45.00
20866;DHT22;10593;48.398;10.698;2023-02-08T15:20:39;3.00;45.00
20866;DHT22;10593;48.398;10.698;2023-02-08T15:23:18;3.00;44.90
20866;DHT22;10593;48.398;10.698;2023-02-08T15:26:00;3.00;44.60
20866;DHT22;10593;48.398;10.698;2023-02-08T15:28:29;3.00;44.40
20866;DHT22;10593;48.398;10.698;2023-02-08T15:31:01;3.00;44.50
20866;DHT22;10593;48.398;10.698;2023-02-08T15:33:32;3.00;44.50
20866;DHT22;10593;48.398;10.698;2023-02-08T15:36:39;3.00;44.50
20866;DHT22;10593;48.398;10.698;2023-02-08T15:39:03;3.00;44.40
20866;DHT22;10593;48.398;10.698;2023-02-08T15:41:35;3.00;44.50
20866;DHT22;10593;48.398;10.698;2023-02-08T15:46:54;3.00;44.40
20866;DHT22;10593;48.398;10.698;2023-02-08T15:49:34;3.00;44.50
20866;DHT22;10593;48.398;10.698;2023-02-08T15:52:02;3.00;44.40
20866;DHT22;10593;48.398;10.698;2023-02-08T15:54:30;3.00;44.40
20866;DHT22;10593;48.398;10.698;2023-02-08T15:59:58;3.00;44.40
20866;DHT22;10593;48.398;10.698;2023-02-08T16:02:29;3.00;44.50
20866;DHT22;10593;48.398;10.698;2023-02-08T16:05:01;3.00;44.40
20866;DHT22;10593;48.398;10.698;2023-02-08T16:07:41;3.00;44.60
20866;DHT22;10593;48.398;10.698;2023-02-08T16:10:28;2.90;44.40
20866;DHT22;10593;48.398;10.698;2023-02-08T16:13:04;3.00;44.40
20866;DHT22;10593;48.398;10.698;2023-02-08T16:15:45;3.00;44.60
20866;DHT22;10593;48.398;10.698;2023-02-08T16:21:20;2.90;44.40
20866;DHT22;10593;48.398;10.698;2023-02-08T16:23:55;2.90;44.50
20866;DHT22;10593;48.398;10.698;2023-02-08T16:26:27;2.90;44.50
20866;DHT22;10593;48.398;10.698;2023-02-08T16:28:59;2.90;44.50
20866;DHT22;10593;48.398;10.698;2023-02-08T16:31:29;2.90;44.50
20866;DHT22;10593;48.398;10.698;2023-02-08T16:34:02;2.90;44.50
20866;DHT22;10593;48.398;10.698;2023-02-08T16:36:36;2.90;44.40
20866;DHT22;10593;48.398;10.698;2023-02-08T16:44:24;2.90;44.50
20866;DHT22;10593;48.398;10.698;2023-02-08T16:46:52;2.90;44.50
20866;DHT22;10593;48.398;10.698;2023-02-08T16:49:18;2.90;44.50
20866;DHT22;10593;48.398;10.698;2023-02-08T16:51:44;2.90;44.50
20866;DHT22;10593;48.398;10.698;2023-02-08T16:54:14;2.80;44.50
20866;DHT22;10593;48.398;10.698;2023-02-08T16:56:43;2.90;44.60
20866;DHT22;10593;48.398;10.698;2023-02-08T16:59:14;2.80;45.20
20866;DHT22;10593;48.398;10.698;2023-02-08T17:01:41;2.80;44.60
20866;DHT22;10593;48.398;10.698;2023-02-08T17:04:13;2.80;44.60
20866;DHT22;10593;48.398;10.698;2023-02-08T17:06:41;2.80;44.60
20866;DHT22;10593;48.398;10.698;2023-02-08T17:09:11;2.80;44.60
20866;DHT22;10593;48.398;10.698;2023-02-08T17:11:38;2.80;44.60
20866;DHT22;10593;48.398;10.698;2023-02-08T17:14:05;2.80;44.60
20866;DHT22;10593;48.398;10.698;2023-02-08T17:16:36;2.80;44.60
20866;DHT22;10593;48.398;10.698;2023-02-08T17:19:04;2.80;44.60
20866;DHT22;10593;48.398;10.698;2023-02-08T17:21:31;2.80;44.60
20866;DHT22;10593;48.398;10.698;2023-02-08T17:23:57;2.80;44.60
20866;DHT22;10593;48.398;10.698;2023-02-08T17:26:25;2.80;44.70
20866;DHT22;10593;48.398;10.698;2023-02-08T17:28:54;2.80;44.60
20866;DHT22;10593;48.398;10.698;2023-02-08T17:31:22;2.80;44.60
20866;DHT22;10593;48.398;10.698;2023-02-08T17:33:49;2.80;44.60
20866;DHT22;10593;48.398;10.698;2023-02-08T17:36:16;2.80;44.60
20866;DHT22;10593;48.398;10.698;2023-02-08T17:38:44;2.80;44.60
20866;DHT22;10593;48.398;10.698;2023-02-08T17:41:16;2.80;44.60
20866;DHT22;10593;48.398;10.698;2023-02-08T17:43:44;2.70;44.50
20866;DHT22;10593;48.398;10.698;2023-02-08T17:46:16;2.70;44.60
20866;DHT22;10593;48.398;10.698;2023-02-08T17:48:44;2.70;44.60
20866;DHT22;10593;48.398;10.698;2023-02-08T17:51:12;2.70;44.60
20866;DHT22;10593;48.398;10.698;2023-02-08T17:53:40;2.70;44.70
20866;DHT22;10593;48.398;10.698;2023-02-08T17:56:16;2.70;44.70
20866;DHT22;10593;48.398;10.698;2023-02-08T17:58:43;2.70;44.70
20866;DHT22;10593;48.398;10.698;2023-02-08T18:01:14;2.70;44.70
20866;DHT22;10593;48.398;10.698;2023-02-08T18:03:43;2.60;44.70
20866;DHT22;10593;48.398;10.698;2023-02-08T18:06:11;2.60;44.70
20866;DHT22;10593;48.398;10.698;2023-02-08T18:08:38;2.60;44.70
20866;DHT22;10593;48.398;10.698;2023-02-08T18:11:09;2.60;44.70
20866;DHT22;10593;48.398;10.698;2023-02-08T18:13:38;2.60;44.70